Aérodrome :
LOGIN :

S'inscrire | Disclaimer

   EN    FR    IT 

 










Légende :    VFR   VFR Marginal   IFR   IFR Intensif   IFR Très Intensif
Visi : 
Plafond : 
>= 8 km
>= 3000ft
5 à 8 km
1000 à 3000 ft
1500m à 5 km
500 à 1000 ft
800 à 1500m
200 à 500 ft
< 800m
< 200 ft
Symboles :   Orages  Brouillard  Fortes neiges  Fortes précipitations  Vent > 20 kt
SIGMETs :   Divers  Orages  Givrage  Turbulence  Onde Orograph.  Cendres Volcan.







- Altitude de l'aérodrome : 348 ft
- Code IATA : STN
- Voir les cartes d'approche


EGSS - London Stansted

DERNIER METAR :
  • 210920Z AUTO 22007KT 180V260 9999 NCD 19/13 Q1021

METARs EXPIRÉS :
  • 210850Z AUTO 24007KT 190V270 9999 NCD 19/12 Q1020
  • 210820Z AUTO 24006KT 200V290 9999 NCD 18/12 Q1020
  • 210750Z AUTO 24007KT 9999 NCD 17/13 Q1020
  • 210720Z AUTO 23007KT 9999 NCD 16/13 Q1020
  • 210650Z AUTO 23005KT 9999 NCD 15/14 Q1020

TAF TAF EGSS
Valide du 21 à 06h jusqu'au 22 à 12h UTC


210505Z 2106/2212 22003KT 9999 SCT035
TEMPO 2106/2108 4000 HZ
BECMG 2109/2112 22013KT
PROB30
TEMPO 2122/2207 23016G26KT
TEMPO 2203/2212 BKN009
ATIS : +44 1279 669 325
Pas de NOTAMs connus pour ce terrain.



MET'MAP, la Météo Aéronautique d'un coup d'oeil ! - Copyright ORBIFLY Décembre 2007 - Disclaimer

ORBIFLY MET'MAP TEAM :

Programmation & Développement : Alexandra Zaïnal
Conception & Développement : Baudouin d'Aumeries
Co-Programmation & Développement : Marc-Olivier Méhu
Soutien technique & logistique : Manuel Goepfert

Contact : metmap@orbifly.com




SOURCES & CREDITS :

   NOAA